This is the latest recevied weather packets stored in our database for station/object CQ0XVC-11. If no packets are shown the sender has not sent any weather packets the latest 1 day(s).
| Time | Temp. | Humidity | Pressure | Rain* | Wind** | Luminosity | Snow |
|---|---|---|---|---|---|---|---|
| 1778086940 | 18.33° C | 29% | 997.6 hPa | 0 mm | - | - | - |
| 1778086670 | 18.33° C | 31% | 997.6 hPa | 0 mm | - | - | - |
| 1778086336 | 17.78° C | 30% | 997.6 hPa | 0 mm | - | - | - |
| 1778086034 | 18.33° C | 31% | 997.7 hPa | 0 mm | - | - | - |
| 1778085465 | 19.44° C | 28% | 997.5 hPa | 0 mm | - | - | - |
| 1778085127 | 19.44° C | 28% | 997.5 hPa | 0 mm | - | - | - |
| 1778084221 | 18.89° C | 30% | 997.6 hPa | 0 mm | - | - | - |
| 1778083918 | 18.89° C | 30% | 997.7 hPa | 0 mm | - | - | - |
| 1778083314 | 18.89° C | 31% | 997.6 hPa | 0 mm | - | - | - |
| 1778082408 | 18.33° C | 32% | 997.7 hPa | 0 mm | - | - | - |
| 1778081501 | 20° C | 26% | 997.7 hPa | 0 mm | - | - | - |
| 1778080595 | 20° C | 27% | 997.8 hPa | 0 mm | - | - | - |
| 1778080292 | 19.44° C | 28% | 997.9 hPa | 0 mm | - | - | - |
| 1778078479 | 20° C | 27% | 998.3 hPa | 0 mm | - | - | - |
| 1778078177 | 20° C | 26% | 998.5 hPa | 0 mm | - | - | - |
| 1778077613 | 20° C | 26% | 998.5 hPa | 0 mm | - | - | - |
| 1778077573 | 20° C | 26% | 998.5 hPa | 0 mm | - | - | - |
| 1778076666 | 19.44° C | 28% | 998.8 hPa | 0 mm | - | - | - |
| 1778075791 | 20° C | 26% | 998.8 hPa | 0 mm | - | - | - |
| 1778075760 | 20° C | 26% | 998.8 hPa | 0 mm | - | - | - |
| 1778075203 | 19.44° C | 27% | 998.8 hPa | 0 mm | - | - | - |
| 1778074583 | 19.44° C | 25% | 999 hPa | 0 mm | - | - | - |
| 1778073947 | 18.89° C | 27% | 999.2 hPa | 0 mm | - | - | - |
| 1778073644 | 18.33° C | 29% | 999.2 hPa | 0 mm | - | - | - |
| 1778073074 | 17.78° C | 30% | 999.3 hPa | 0 mm | - | - | - |
* Rain since midnight (hover to see other rain measurements)
** Current wind speed in m/s (hover to see current wind gust speed)